Time,TemperatureF,DewpointF,PressureIn,WindDirection,WindDirectionDegrees,WindSpeedMPH,WindSpeedGustMPH,Humidity,HourlyPrecipIn,Conditions,Clouds,dailyrainin,SoftwareType,DateUTC
2013-04-07 00:00:00,51.1,33.1,30.13,West,281,0.0,0.0,50,0.00,,SKC,0.00,VWS V14.01,2013-04-07 04:00:00,
2013-04-07 00:05:00,51.4,33.4,30.13,West,281,0.0,0.0,50,0.00,,SKC,0.00,VWS V14.01,2013-04-07 04:05:00,
2013-04-07 00:10:00,51.7,33.7,30.13,West,281,0.0,0.0,50,0.00,,SKC,0.00,VWS V14.01,2013-04-07 04:10:00,
2013-04-07 00:15:00,51.9,32.8,30.11,West,281,0.0,0.0,48,0.00,,SKC,0.00,VWS V14.01,2013-04-07 04:15:00,
2013-04-07 00:20:00,51.7,33.7,30.11,West,281,0.0,0.0,50,0.00,,SKC,0.00,VWS V14.01,2013-04-07 04:20:00,
2013-04-07 00:25:00,51.1,34.1,30.11,West,281,4.0,5.0,52,0.00,,SKC,0.00,VWS V14.01,2013-04-07 04:25:00,
2013-04-07 00:30:00,50.8,33.8,30.12,WNW,284,0.0,0.0,52,0.00,,SKC,0.00,VWS V14.01,2013-04-07 04:30:00,
2013-04-07 00:35:00,51.1,33.6,30.12,WNW,284,0.0,0.0,51,0.00,,SKC,0.00,VWS V14.01,2013-04-07 04:35:00,
2013-04-07 00:40:00,51.4,33.9,30.12,WNW,284,0.0,0.0,51,0.00,,SKC,0.00,VWS V14.01,2013-04-07 04:40:00,
2013-04-07 00:46:00,51.9,33.9,30.11,WNW,284,0.0,0.0,50,0.00,,SKC,0.00,VWS V14.01,2013-04-07 04:46:00,
2013-04-07 00:50:00,52.0,34.0,30.11,WNW,284,0.0,0.0,50,0.00,,SKC,0.00,VWS V14.01,2013-04-07 04:50:00,
2013-04-07 00:55:00,52.2,34.1,30.11,WNW,284,0.0,0.0,50,0.00,,SKC,0.00,VWS V14.01,2013-04-07 04:55:00,
2013-04-07 01:01:00,52.2,35.1,30.12,WNW,284,0.0,0.0,52,0.00,,SKC,0.00,VWS V14.01,2013-04-07 05:01:00,
2013-04-07 01:06:00,52.2,34.6,30.12,WNW,284,0.0,0.0,51,0.00,,SKC,0.00,VWS V14.01,2013-04-07 05:06:00,
2013-04-07 01:11:00,52.2,35.1,30.12,West,281,2.0,2.0,52,0.00,,SKC,0.00,VWS V14.01,2013-04-07 05:11:00,
2013-04-07 01:16:00,52.3,34.7,30.12,West,281,0.0,0.0,51,0.00,,SKC,0.00,VWS V14.01,2013-04-07 05:16:00,
2013-04-07 01:21:00,52.2,35.1,30.12,West,281,0.0,0.0,52,0.00,,SKC,0.00,VWS V14.01,2013-04-07 05:21:00,
2013-04-07 01:26:00,52.2,34.6,30.12,West,281,0.0,0.0,51,0.00,,SKC,0.00,VWS V14.01,2013-04-07 05:26:00,
2013-04-07 01:31:00,52.2,34.6,30.12,West,281,0.0,3.0,51,0.00,,SKC,0.00,VWS V14.01,2013-04-07 05:31:00,
2013-04-07 01:36:00,52.0,34.5,30.12,West,281,0.0,0.0,51,0.00,,SKC,0.00,VWS V14.01,2013-04-07 05:36:00,
2013-04-07 01:41:00,51.9,34.8,30.12,West,279,2.0,3.0,52,0.00,,SKC,0.00,VWS V14.01,2013-04-07 05:41:00,
2013-04-07 01:46:00,52.0,34.9,30.11,West,278,0.0,0.0,52,0.00,,SKC,0.00,VWS V14.01,2013-04-07 05:46:00,
2013-04-07 01:51:00,52.0,34.9,30.11,West,278,0.0,0.0,52,0.00,,SKC,0.00,VWS V14.01,2013-04-07 05:51:00,
2013-04-07 01:56:00,51.7,35.1,30.11,West,278,0.0,0.0,53,0.00,,SKC,0.00,VWS V14.01,2013-04-07 05:56:00,
2013-04-07 02:01:00,51.6,35.0,30.11,West,278,3.0,4.0,53,0.00,,SKC,0.00,VWS V14.01,2013-04-07 06:01:00,
2013-04-07 02:06:00,51.4,35.3,30.11,West,278,0.0,0.0,54,0.00,,SKC,0.00,VWS V14.01,2013-04-07 06:06:00,
2013-04-07 02:11:00,51.3,35.7,30.11,West,278,0.0,0.0,55,0.00,,SKC,0.00,VWS V14.01,2013-04-07 06:11:00,
2013-04-07 02:16:00,50.8,35.7,30.10,West,278,0.0,2.0,56,0.00,,SKC,0.00,VWS V14.01,2013-04-07 06:16:00,
2013-04-07 02:21:00,50.5,35.4,30.10,West,278,0.0,0.0,56,0.00,,SKC,0.00,VWS V14.01,2013-04-07 06:21:00,
2013-04-07 02:26:00,50.4,35.8,30.10,West,278,0.0,0.0,57,0.00,,SKC,0.00,VWS V14.01,2013-04-07 06:26:00,
2013-04-07 02:31:00,50.4,35.8,30.09,West,278,0.0,0.0,57,0.00,,SKC,0.00,VWS V14.01,2013-04-07 06:31:00,
2013-04-07 02:36:00,50.1,35.9,30.09,West,278,0.0,0.0,58,0.00,,SKC,0.00,VWS V14.01,2013-04-07 06:36:00,
2013-04-07 02:42:00,49.6,35.5,30.09,West,278,0.0,0.0,58,0.00,,SKC,0.00,VWS V14.01,2013-04-07 06:42:00,
2013-04-07 02:47:00,49.5,35.8,30.09,West,278,0.0,0.0,59,0.00,,SKC,0.00,VWS V14.01,2013-04-07 06:47:00,
2013-04-07 02:52:00,49.4,35.7,30.09,West,278,0.0,0.0,59,0.00,,SKC,0.00,VWS V14.01,2013-04-07 06:52:00,
2013-04-07 02:57:00,49.1,35.8,30.09,West,278,0.0,3.0,60,0.00,,SKC,0.00,VWS V14.01,2013-04-07 06:57:00,
2013-04-07 03:02:00,48.8,35.5,30.10,West,278,0.0,3.0,60,0.00,,SKC,0.00,VWS V14.01,2013-04-07 07:02:00,
2013-04-07 03:07:00,48.6,35.8,30.10,West,278,0.0,0.0,61,0.00,,SKC,0.00,VWS V14.01,2013-04-07 07:07:00,
2013-04-07 03:12:00,48.6,35.8,30.10,West,278,0.0,0.0,61,0.00,,SKC,0.00,VWS V14.01,2013-04-07 07:12:00,
2013-04-07 03:17:00,48.6,35.8,30.10,West,278,0.0,0.0,61,0.00,,SKC,0.00,VWS V14.01,2013-04-07 07:17:00,
2013-04-07 03:22:00,48.6,35.8,30.10,West,278,0.0,1.0,61,0.00,,SKC,0.00,VWS V14.01,2013-04-07 07:22:00,
2013-04-07 03:27:00,48.5,35.7,30.10,West,278,0.0,0.0,61,0.00,,SKC,0.00,VWS V14.01,2013-04-07 07:27:00,
2013-04-07 03:32:00,48.3,35.9,30.09,West,278,0.0,1.0,62,0.00,,SKC,0.00,VWS V14.01,2013-04-07 07:32:00,
2013-04-07 03:37:00,48.2,35.8,30.09,West,278,0.0,0.0,62,0.00,,SKC,0.00,VWS V14.01,2013-04-07 07:37:00,
2013-04-07 03:42:00,47.7,35.7,30.09,West,278,0.0,4.0,63,0.00,,SKC,0.00,VWS V14.01,2013-04-07 07:42:00,
2013-04-07 03:47:00,48.0,35.6,30.10,West,278,0.0,0.0,62,0.00,,SKC,0.00,VWS V14.01,2013-04-07 07:47:00,
2013-04-07 03:52:00,48.5,36.1,30.10,West,278,0.0,0.0,62,0.00,,SKC,0.00,VWS V14.01,2013-04-07 07:52:00,
2013-04-07 03:57:00,48.8,35.5,30.10,West,278,0.0,3.0,60,0.00,,SKC,0.00,VWS V14.01,2013-04-07 07:57:00,
2013-04-07 04:02:00,49.2,35.9,30.10,West,278,0.0,0.0,60,0.00,,SKC,0.00,VWS V14.01,2013-04-07 08:02:00,
2013-04-07 04:07:00,49.2,35.5,30.10,West,278,0.0,0.0,59,0.00,,SKC,0.00,VWS V14.01,2013-04-07 08:07:00,
2013-04-07 04:12:00,49.4,35.3,30.10,West,278,4.0,4.0,58,0.00,,SKC,0.00,VWS V14.01,2013-04-07 08:12:00,
2013-04-07 04:17:00,49.4,35.3,30.10,West,278,3.0,3.0,58,0.00,,SKC,0.00,VWS V14.01,2013-04-07 08:17:00,
2013-04-07 04:22:00,49.4,35.3,30.10,West,276,0.0,1.0,58,0.00,,SKC,0.00,VWS V14.01,2013-04-07 08:22:00,
2013-04-07 04:27:00,49.4,35.3,30.10,West,276,0.0,0.0,58,0.00,,SKC,0.00,VWS V14.01,2013-04-07 08:27:00,
2013-04-07 04:32:00,49.2,35.5,30.10,West,271,2.0,7.0,59,0.00,,SKC,0.00,VWS V14.01,2013-04-07 08:32:00,
2013-04-07 04:37:00,49.4,35.3,30.10,West,269,3.0,6.0,58,0.00,,SKC,0.00,VWS V14.01,2013-04-07 08:37:00,
2013-04-07 04:42:00,49.2,35.5,30.10,West,269,0.0,4.0,59,0.00,,SKC,0.00,VWS V14.01,2013-04-07 08:42:00,
2013-04-07 04:47:00,49.1,35.4,30.10,West,269,0.0,0.0,59,0.00,,SKC,0.00,VWS V14.01,2013-04-07 08:47:00,
2013-04-07 04:52:00,48.8,35.1,30.10,West,269,0.0,0.0,59,0.00,,SKC,0.00,VWS V14.01,2013-04-07 08:52:00,
2013-04-07 04:57:00,48.3,35.9,30.10,West,269,0.0,0.0,62,0.00,,SKC,0.00,VWS V14.01,2013-04-07 08:57:00,
2013-04-07 05:02:00,47.9,35.5,30.10,West,269,0.0,0.0,62,0.00,,SKC,0.00,VWS V14.01,2013-04-07 09:02:00,
2013-04-07 05:07:00,47.3,35.4,30.10,West,269,0.0,1.0,63,0.00,,SKC,0.00,VWS V14.01,2013-04-07 09:07:00,
2013-04-07 05:12:00,47.0,35.1,30.10,West,269,0.0,0.0,63,0.00,,SKC,0.00,VWS V14.01,2013-04-07 09:12:00,
2013-04-07 05:17:00,46.7,35.2,30.11,West,269,0.0,1.0,64,0.00,,SKC,0.00,VWS V14.01,2013-04-07 09:17:00,
2013-04-07 05:22:00,46.5,35.4,30.11,West,269,2.0,3.0,65,0.00,,SKC,0.00,VWS V14.01,2013-04-07 09:22:00,
2013-04-07 05:27:00,46.5,35.4,30.11,West,269,0.0,4.0,65,0.00,,SKC,0.00,VWS V14.01,2013-04-07 09:27:00,
2013-04-07 05:32:00,47.3,35.8,30.11,West,269,0.0,1.0,64,0.00,,SKC,0.00,VWS V14.01,2013-04-07 09:32:00,
2013-04-07 05:37:00,47.6,35.6,30.11,West,269,0.0,0.0,63,0.00,,SKC,0.00,VWS V14.01,2013-04-07 09:37:00,
2013-04-07 05:42:00,47.4,35.8,30.11,West,269,3.0,4.0,64,0.00,,SKC,0.00,VWS V14.01,2013-04-07 09:42:00,
2013-04-07 05:47:00,47.1,35.6,30.11,West,269,0.0,3.0,64,0.00,,SKC,0.00,VWS V14.01,2013-04-07 09:47:00,
2013-04-07 05:52:00,47.0,36.2,30.11,West,269,2.0,4.0,66,0.00,,SKC,0.00,VWS V14.01,2013-04-07 09:52:00,
2013-04-07 05:57:00,46.8,36.0,30.11,West,271,0.0,3.0,66,0.00,,SKC,0.00,VWS V14.01,2013-04-07 09:57:00,
2013-04-07 06:02:00,46.7,36.0,30.11,West,270,0.0,2.0,66,0.00,,SKC,0.00,VWS V14.01,2013-04-07 10:02:00,
2013-04-07 06:07:00,46.5,35.8,30.11,West,270,0.0,3.0,66,0.00,,SKC,0.00,VWS V14.01,2013-04-07 10:07:00,
2013-04-07 06:12:00,46.5,35.8,30.11,West,270,0.0,2.0,66,0.00,,SKC,0.00,VWS V14.01,2013-04-07 10:12:00,
2013-04-07 06:17:00,46.5,36.2,30.11,West,271,0.0,0.0,67,0.00,,SKC,0.00,VWS V14.01,2013-04-07 10:17:00,
2013-04-07 06:22:00,46.5,36.2,30.11,West,270,0.0,1.0,67,0.00,,SKC,0.00,VWS V14.01,2013-04-07 10:22:00,
2013-04-07 06:27:00,46.4,36.0,30.11,West,271,3.0,3.0,67,0.00,,SKC,0.00,VWS V14.01,2013-04-07 10:27:00,
2013-04-07 06:32:00,46.4,36.0,30.12,West,270,0.0,1.0,67,0.00,,SKC,0.00,VWS V14.01,2013-04-07 10:32:00,
2013-04-07 06:37:00,46.2,35.9,30.12,West,271,0.0,2.0,67,0.00,,SKC,0.00,VWS V14.01,2013-04-07 10:37:00,
2013-04-07 06:42:00,46.2,35.9,30.12,West,270,0.0,0.0,67,0.00,,SKC,0.00,VWS V14.01,2013-04-07 10:42:00,
2013-04-07 06:47:00,46.5,35.8,30.12,West,271,3.0,4.0,66,0.00,,SKC,0.00,VWS V14.01,2013-04-07 10:47:00,
2013-04-07 06:52:00,46.7,36.0,30.12,West,271,0.0,2.0,66,0.00,,SKC,0.00,VWS V14.01,2013-04-07 10:52:00,
2013-04-07 06:57:00,46.8,36.0,30.12,West,270,1.0,3.0,66,0.00,,SKC,0.00,VWS V14.01,2013-04-07 10:57:00,
2013-04-07 07:02:00,46.8,36.0,30.12,West,271,0.0,4.0,66,0.00,,SKC,0.00,VWS V14.01,2013-04-07 11:02:00,
2013-04-07 07:07:00,46.7,36.0,30.12,West,270,0.0,3.0,66,0.00,,SKC,0.00,VWS V14.01,2013-04-07 11:07:00,
2013-04-07 07:12:00,46.7,36.0,30.12,West,270,0.0,0.0,66,0.00,,SKC,0.00,VWS V14.01,2013-04-07 11:12:00,
2013-04-07 07:17:00,47.0,35.9,30.13,West,270,0.0,1.0,65,0.00,,SKC,0.00,VWS V14.01,2013-04-07 11:17:00,
2013-04-07 07:22:00,47.1,36.0,30.13,West,271,0.0,4.0,65,0.00,,SKC,0.00,VWS V14.01,2013-04-07 11:22:00,
2013-04-07 07:27:00,47.4,36.2,30.13,West,270,0.0,2.0,65,0.00,,SKC,0.00,VWS V14.01,2013-04-07 11:27:00,
2013-04-07 07:32:00,47.6,36.4,30.13,West,270,1.0,3.0,65,0.00,,SKC,0.00,VWS V14.01,2013-04-07 11:32:00,
2013-04-07 07:37:00,47.7,36.5,30.13,West,270,0.0,1.0,65,0.00,,SKC,0.00,VWS V14.01,2013-04-07 11:37:00,
2013-04-07 07:42:00,47.9,36.7,30.13,West,270,0.0,4.0,65,0.00,,SKC,0.00,VWS V14.01,2013-04-07 11:42:00,
2013-04-07 07:48:00,48.2,37.8,30.14,West,270,0.0,0.0,67,0.00,,SKC,0.00,VWS V14.01,2013-04-07 11:48:00,
2013-04-07 07:53:00,47.7,37.3,30.14,West,270,0.0,2.0,67,0.00,,SKC,0.00,VWS V14.01,2013-04-07 11:53:00,
2013-04-07 07:58:00,47.1,37.5,30.14,West,270,0.0,0.0,69,0.00,,SKC,0.00,VWS V14.01,2013-04-07 11:58:00,
2013-04-07 08:03:00,46.4,36.8,30.14,West,270,0.0,0.0,69,0.00,,SKC,0.00,VWS V14.01,2013-04-07 12:03:00,
2013-04-07 08:08:00,46.0,36.8,30.14,West,270,0.0,0.0,70,0.00,,SKC,0.00,VWS V14.01,2013-04-07 12:08:00,
2013-04-07 08:13:00,46.1,37.2,30.14,West,270,0.0,0.0,71,0.00,,SKC,0.00,VWS V14.01,2013-04-07 12:13:00,
2013-04-07 08:18:00,46.7,37.5,30.16,West,270,0.0,0.0,70,0.00,,SKC,0.00,VWS V14.01,2013-04-07 12:18:00,
2013-04-07 08:23:00,47.1,37.8,30.16,West,268,0.0,2.0,70,0.00,,SKC,0.00,VWS V14.01,2013-04-07 12:23:00,
2013-04-07 08:28:00,47.0,37.4,30.16,West,268,0.0,0.0,69,0.00,,SKC,0.00,VWS V14.01,2013-04-07 12:28:00,
2013-04-07 08:33:00,46.8,37.2,30.15,West,268,2.0,2.0,69,0.00,,SKC,0.00,VWS V14.01,2013-04-07 12:33:00,
2013-04-07 08:38:00,46.5,37.3,30.15,West,268,0.0,2.0,70,0.00,,SKC,0.00,VWS V14.01,2013-04-07 12:38:00,
2013-04-07 08:43:00,46.8,37.2,30.15,West,268,0.0,1.0,69,0.00,,SKC,0.00,VWS V14.01,2013-04-07 12:43:00,
2013-04-07 08:48:00,47.6,38.0,30.15,West,268,0.0,1.0,69,0.00,,SKC,0.00,VWS V14.01,2013-04-07 12:48:00,
2013-04-07 08:53:00,48.2,38.2,30.15,West,268,0.0,2.0,68,0.00,,SKC,0.00,VWS V14.01,2013-04-07 12:53:00,
2013-04-07 08:58:00,49.1,38.6,30.15,WSW,258,2.0,3.0,67,0.00,,SKC,0.00,VWS V14.01,2013-04-07 12:58:00,
2013-04-07 09:03:00,50.1,39.2,30.15,WSW,258,0.0,2.0,66,0.00,,SKC,0.00,VWS V14.01,2013-04-07 13:03:00,
2013-04-07 09:08:00,50.8,39.1,30.15,WSW,255,0.0,1.0,64,0.00,,SKC,0.00,VWS V14.01,2013-04-07 13:08:00,
2013-04-07 09:13:00,51.7,39.1,30.15,WSW,249,0.0,2.0,62,0.00,,SKC,0.00,VWS V14.01,2013-04-07 13:13:00,
2013-04-07 09:18:00,52.3,38.8,30.15,WSW,237,0.0,2.0,60,0.00,,SKC,0.00,VWS V14.01,2013-04-07 13:18:00,
2013-04-07 09:23:00,52.9,39.4,30.15,SW,225,0.0,2.0,60,0.00,,SKC,0.00,VWS V14.01,2013-04-07 13:23:00,
2013-04-07 09:28:00,53.2,38.8,30.15,SSW,212,0.0,2.0,58,0.00,,SKC,0.00,VWS V14.01,2013-04-07 13:28:00,
2013-04-07 09:33:00,53.8,39.4,30.15,SE,129,0.0,7.0,58,0.00,,SKC,0.00,VWS V14.01,2013-04-07 13:33:00,
2013-04-07 09:38:00,54.5,39.1,30.15,ESE,123,1.0,4.0,56,0.00,,SKC,0.00,VWS V14.01,2013-04-07 13:38:00,
2013-04-07 09:43:00,55.0,39.6,30.15,SE,131,0.0,5.0,56,0.00,,SKC,0.00,VWS V14.01,2013-04-07 13:43:00,
2013-04-07 09:48:00,55.7,39.3,30.15,SE,133,0.0,2.0,54,0.00,,SKC,0.00,VWS V14.01,2013-04-07 13:48:00,
2013-04-07 09:53:00,56.3,40.4,30.15,SE,129,4.0,5.0,55,0.00,,SKC,0.00,VWS V14.01,2013-04-07 13:53:00,
2013-04-07 09:58:00,56.7,40.3,30.15,ESE,118,1.0,3.0,54,0.00,,SKC,0.00,VWS V14.01,2013-04-07 13:58:00,
2013-04-07 10:03:00,57.0,40.1,30.14,ESE,119,2.0,3.0,53,0.00,,SKC,0.00,VWS V14.01,2013-04-07 14:03:00,
2013-04-07 10:08:00,57.0,40.1,30.14,ESE,119,0.0,5.0,53,0.00,,SKC,0.00,VWS V14.01,2013-04-07 14:08:00,
2013-04-07 10:13:00,57.5,40.0,30.14,ESE,120,0.0,4.0,52,0.00,,SKC,0.00,VWS V14.01,2013-04-07 14:13:00,
2013-04-07 10:18:00,57.6,40.6,30.13,SE,126,1.0,6.0,53,0.00,,SKC,0.00,VWS V14.01,2013-04-07 14:18:00,
2013-04-07 10:23:00,57.5,39.5,30.13,SE,136,3.0,6.0,51,0.00,,SKC,0.00,VWS V14.01,2013-04-07 14:23:00,
2013-04-07 10:28:00,57.6,40.6,30.13,SE,134,3.0,5.0,53,0.00,,SKC,0.00,VWS V14.01,2013-04-07 14:28:00,
2013-04-07 10:33:00,57.6,40.6,30.13,SE,135,1.0,7.0,53,0.00,,SKC,0.00,VWS V14.01,2013-04-07 14:33:00,
2013-04-07 10:38:00,57.6,40.1,30.13,SE,126,3.0,4.0,52,0.00,,SKC,0.00,VWS V14.01,2013-04-07 14:38:00,
2013-04-07 10:43:00,58.6,41.5,30.13,ESE,117,0.0,6.0,53,0.00,,SKC,0.00,VWS V14.01,2013-04-07 14:43:00,
2013-04-07 10:48:00,58.9,40.3,30.14,ESE,120,1.0,6.0,50,0.00,,SKC,0.00,VWS V14.01,2013-04-07 14:48:00,
2013-04-07 10:53:00,58.4,39.8,30.14,ESE,123,4.0,6.0,50,0.00,,SKC,0.00,VWS V14.01,2013-04-07 14:53:00,
2013-04-07 10:58:00,58.7,41.6,30.14,SE,129,0.0,5.0,53,0.00,,SKC,0.00,VWS V14.01,2013-04-07 14:58:00,
2013-04-07 11:03:00,59.3,41.2,30.14,SE,146,3.0,5.0,51,0.00,,SKC,0.00,VWS V14.01,2013-04-07 15:03:00,
2013-04-07 11:08:00,59.9,40.7,30.14,ESE,110,0.0,6.0,49,0.00,,SKC,0.00,VWS V14.01,2013-04-07 15:08:00,
2013-04-07 11:13:00,60.7,40.4,30.14,SE,130,5.0,5.0,47,0.00,,SKC,0.00,VWS V14.01,2013-04-07 15:13:00,
2013-04-07 11:18:00,59.9,39.1,30.14,SE,127,1.0,5.0,46,0.00,,SKC,0.00,VWS V14.01,2013-04-07 15:18:00,
2013-04-07 11:23:00,58.7,38.5,30.14,SE,131,0.0,5.0,47,0.00,,SKC,0.00,VWS V14.01,2013-04-07 15:23:00,
2013-04-07 11:28:00,58.6,39.5,30.14,SE,136,3.0,5.0,49,0.00,,SKC,0.00,VWS V14.01,2013-04-07 15:28:00,
2013-04-07 11:33:00,58.3,39.2,30.14,South,186,3.0,6.0,49,0.00,,SKC,0.00,VWS V14.01,2013-04-07 15:33:00,
2013-04-07 11:38:00,60.1,40.4,30.14,SE,136,0.0,6.0,48,0.00,,SKC,0.00,VWS V14.01,2013-04-07 15:38:00,
2013-04-07 11:43:00,61.0,39.5,30.14,ESE,110,0.0,6.0,45,0.00,,SKC,0.00,VWS V14.01,2013-04-07 15:43:00,
2013-04-07 11:48:00,61.6,40.6,30.13,North,359,4.0,8.0,46,0.00,,SKC,0.00,VWS V14.01,2013-04-07 15:48:00,
2013-04-07 11:53:00,62.4,41.4,30.13,WSW,246,0.0,8.0,46,0.00,,SKC,0.00,VWS V14.01,2013-04-07 15:53:00,
2013-04-07 11:58:00,62.4,39.0,30.13,East,89,0.0,8.0,42,0.00,,SKC,0.00,VWS V14.01,2013-04-07 15:58:00,
2013-04-07 12:03:00,62.7,39.9,30.13,East,91,2.0,10.0,43,0.00,,SKC,0.00,VWS V14.01,2013-04-07 16:03:00,
2013-04-07 12:09:00,63.2,39.8,30.13,West,259,1.0,11.0,42,0.00,,SKC,0.00,VWS V14.01,2013-04-07 16:09:00,
2013-04-07 12:14:00,62.4,40.8,30.13,NNW,335,1.0,11.0,45,0.00,,SKC,0.00,VWS V14.01,2013-04-07 16:14:00,
2013-04-07 12:19:00,62.1,41.1,30.12,NE,45,0.0,6.0,46,0.00,,SKC,0.00,VWS V14.01,2013-04-07 16:19:00,
2013-04-07 12:24:00,62.1,40.5,30.12,ESE,123,2.0,6.0,45,0.00,,SKC,0.00,VWS V14.01,2013-04-07 16:24:00,
2013-04-07 12:29:00,62.3,42.4,30.12,ESE,115,0.0,5.0,48,0.00,,SKC,0.00,VWS V14.01,2013-04-07 16:29:00,
2013-04-07 12:34:00,62.4,39.0,30.11,SSE,157,0.0,4.0,42,0.00,,SKC,0.00,VWS V14.01,2013-04-07 16:34:00,
2013-04-07 12:39:00,62.0,41.0,30.11,East,98,3.0,6.0,46,0.00,,SKC,0.00,VWS V14.01,2013-04-07 16:39:00,
2013-04-07 12:44:00,61.5,41.1,30.11,WSW,254,0.0,7.0,47,0.00,,SKC,0.00,VWS V14.01,2013-04-07 16:44:00,
2013-04-07 12:49:00,61.2,40.8,30.11,South,180,1.0,9.0,47,0.00,,SKC,0.00,VWS V14.01,2013-04-07 16:49:00,
2013-04-07 12:54:00,62.1,41.1,30.11,North,351,2.0,9.0,46,0.00,,SKC,0.00,VWS V14.01,2013-04-07 16:54:00,
2013-04-07 12:59:00,63.5,41.8,30.11,NE,43,2.0,5.0,45,0.00,,SKC,0.00,VWS V14.01,2013-04-07 16:59:00,
2013-04-07 13:04:00,64.2,41.3,30.10,ESE,119,5.0,9.0,43,0.00,,SKC,0.00,VWS V14.01,2013-04-07 17:04:00,
2013-04-07 13:09:00,64.3,41.9,30.10,East,100,4.0,7.0,44,0.00,,SKC,0.00,VWS V14.01,2013-04-07 17:09:00,
2013-04-07 13:14:00,64.5,41.5,30.09,West,278,0.0,7.0,43,0.00,,SKC,0.00,VWS V14.01,2013-04-07 17:14:00,
2013-04-07 13:19:00,64.2,41.8,30.09,West,259,8.0,9.0,44,0.00,,SKC,0.00,VWS V14.01,2013-04-07 17:19:00,
2013-04-07 13:24:00,64.3,43.1,30.09,NW,311,2.0,10.0,46,0.00,,SKC,0.00,VWS V14.01,2013-04-07 17:24:00,
2013-04-07 13:29:00,65.3,41.0,30.08,East,98,2.0,9.0,41,0.00,,SKC,0.00,VWS V14.01,2013-04-07 17:29:00,
2013-04-07 13:34:00,65.8,42.1,30.08,NE,49,3.0,6.0,42,0.00,,SKC,0.00,VWS V14.01,2013-04-07 17:34:00,
2013-04-07 13:39:00,65.0,40.1,30.08,West,274,6.0,10.0,40,0.00,,SKC,0.00,VWS V14.01,2013-04-07 17:39:00,
2013-04-07 13:44:00,64.8,41.2,30.07,SW,224,2.0,9.0,42,0.00,,SKC,0.00,VWS V14.01,2013-04-07 17:44:00,
2013-04-07 13:49:00,65.5,41.2,30.07,SSW,193,0.0,6.0,41,0.00,,SKC,0.00,VWS V14.01,2013-04-07 17:49:00,
2013-04-07 13:54:00,66.1,41.7,30.07,SSW,192,2.0,2.0,41,0.00,,SKC,0.00,VWS V14.01,2013-04-07 17:54:00,
2013-04-07 14:00:00,66.4,43.2,30.06,ESE,121,0.0,7.0,43,0.00,,SKC,0.00,VWS V14.01,2013-04-07 18:00:00,
2013-04-07 14:05:00,66.9,42.5,30.06,ESE,120,1.0,4.0,41,0.00,,SKC,0.00,VWS V14.01,2013-04-07 18:05:00,
2013-04-07 14:10:00,67.9,42.1,30.06,SE,126,1.0,7.0,39,0.00,,SKC,0.00,VWS V14.01,2013-04-07 18:10:00,
2013-04-07 14:15:00,68.1,40.2,30.05,SE,128,6.0,7.0,36,0.00,,SKC,0.00,VWS V14.01,2013-04-07 18:15:00,
2013-04-07 14:20:00,68.4,42.5,30.05,ESE,119,2.0,8.0,39,0.00,,SKC,0.00,VWS V14.01,2013-04-07 18:20:00,
2013-04-07 14:25:00,68.6,40.6,30.05,NNW,338,3.0,12.0,36,0.00,,SKC,0.00,VWS V14.01,2013-04-07 18:25:00,
2013-04-07 14:30:00,68.6,41.3,30.04,North,2,2.0,6.0,37,0.00,,SKC,0.00,VWS V14.01,2013-04-07 18:30:00,
2013-04-07 14:35:00,68.8,41.5,30.04,ESE,110,0.0,10.0,37,0.00,,SKC,0.00,VWS V14.01,2013-04-07 18:35:00,
2013-04-07 14:40:00,68.9,40.9,30.04,WSW,252,1.0,7.0,36,0.00,,SKC,0.00,VWS V14.01,2013-04-07 18:40:00,
2013-04-07 14:45:00,68.8,42.2,30.03,SE,129,3.0,5.0,38,0.00,,SKC,0.00,VWS V14.01,2013-04-07 18:45:00,
2013-04-07 14:50:00,68.3,42.4,30.03,East,82,2.0,9.0,39,0.00,,SKC,0.00,VWS V14.01,2013-04-07 18:50:00,
2013-04-07 14:55:00,68.6,41.3,30.03,SE,129,0.0,5.0,37,0.00,,SKC,0.00,VWS V14.01,2013-04-07 18:55:00,
2013-04-07 15:00:00,69.1,42.5,30.03,SE,127,1.0,3.0,38,0.00,,SKC,0.00,VWS V14.01,2013-04-07 19:00:00,
2013-04-07 15:05:00,68.8,40.8,30.03,NNE,26,3.0,5.0,36,0.00,,SKC,0.00,VWS V14.01,2013-04-07 19:05:00,
2013-04-07 15:10:00,67.9,40.7,30.03,SE,127,4.0,6.0,37,0.00,,SKC,0.00,VWS V14.01,2013-04-07 19:10:00,
2013-04-07 15:15:00,67.8,39.9,30.02,East,96,1.0,10.0,36,0.00,,SKC,0.00,VWS V14.01,2013-04-07 19:15:00,
2013-04-07 15:20:00,68.3,41.7,30.02,SE,139,1.0,7.0,38,0.00,,SKC,0.00,VWS V14.01,2013-04-07 19:20:00,
2013-04-07 15:25:00,68.9,40.9,30.02,WNW,298,2.0,7.0,36,0.00,,SKC,0.00,VWS V14.01,2013-04-07 19:25:00,
2013-04-07 15:30:00,69.1,40.3,30.01,West,272,0.0,13.0,35,0.00,,SKC,0.00,VWS V14.01,2013-04-07 19:30:00,
2013-04-07 15:35:00,69.4,41.3,30.01,West,280,2.0,7.0,36,0.00,,SKC,0.00,VWS V14.01,2013-04-07 19:35:00,
2013-04-07 15:40:00,69.8,40.9,30.01,WSW,255,0.0,12.0,35,0.00,,SKC,0.00,VWS V14.01,2013-04-07 19:40:00,
2013-04-07 15:45:00,69.8,40.9,30.01,WSW,255,0.0,0.0,35,0.00,,SKC,0.00,VWS V14.01,2013-04-07 19:45:00,
2013-04-07 15:50:00,69.1,43.1,30.01,West,261,0.0,0.0,39,0.00,,SKC,0.00,VWS V14.01,2013-04-07 19:50:00,
2013-04-07 15:55:00,68.4,40.4,30.01,SE,141,5.0,5.0,36,0.00,,SKC,0.00,VWS V14.01,2013-04-07 19:55:00,
2013-04-07 16:00:00,68.3,41.7,30.00,SSE,152,2.0,4.0,38,0.00,,SKC,0.00,VWS V14.01,2013-04-07 20:00:00,
2013-04-07 16:05:00,68.6,40.6,30.00,ESE,122,5.0,7.0,36,0.00,,SKC,0.00,VWS V14.01,2013-04-07 20:05:00,
2013-04-07 16:10:00,68.4,41.1,30.00,ESE,117,0.0,0.0,37,0.00,,SKC,0.00,VWS V14.01,2013-04-07 20:10:00,
2013-04-07 16:15:00,68.4,41.8,30.01,West,262,1.0,2.0,38,0.00,,SKC,0.00,VWS V14.01,2013-04-07 20:15:00,
2013-04-07 16:21:00,67.9,41.4,30.01,SE,129,0.0,2.0,38,0.00,,SKC,0.00,VWS V14.01,2013-04-07 20:21:00,
2013-04-07 16:26:00,68.1,44.2,30.01,SSW,196,0.0,1.0,42,0.00,,SKC,0.00,VWS V14.01,2013-04-07 20:26:00,
2013-04-07 16:31:00,68.1,41.6,30.00,SSW,194,0.0,3.0,38,0.00,,SKC,0.00,VWS V14.01,2013-04-07 20:31:00,
2013-04-07 16:36:00,68.1,41.6,30.00,South,169,2.0,4.0,38,0.00,,SKC,0.00,VWS V14.01,2013-04-07 20:36:00,
2013-04-07 16:41:00,67.9,43.4,30.00,ESE,118,0.0,1.0,41,0.00,,SKC,0.00,VWS V14.01,2013-04-07 20:41:00,
2013-04-07 16:46:00,67.8,42.6,30.00,SE,130,0.0,0.0,40,0.00,,SKC,0.00,VWS V14.01,2013-04-07 20:46:00,
2013-04-07 16:50:00,67.6,42.4,30.00,ESE,110,0.0,1.0,40,0.00,,SKC,0.00,VWS V14.01,2013-04-07 20:50:00,
2013-04-07 16:56:00,67.1,42.6,30.00,SE,131,0.0,1.0,41,0.00,,SKC,0.00,VWS V14.01,2013-04-07 20:56:00,
2013-04-07 17:01:00,66.6,41.5,30.01,ESE,113,0.0,2.0,40,0.00,,SKC,0.00,VWS V14.01,2013-04-07 21:01:00,
2013-04-07 17:06:00,66.6,42.2,30.01,SE,126,2.0,2.0,41,0.00,,SKC,0.00,VWS V14.01,2013-04-07 21:06:00,
2013-04-07 17:11:00,66.8,43.0,30.01,West,274,4.0,5.0,42,0.00,,SKC,0.00,VWS V14.01,2013-04-07 21:11:00,
2013-04-07 17:16:00,66.8,43.0,30.02,SSE,160,0.0,0.0,42,0.00,,SKC,0.00,VWS V14.01,2013-04-07 21:16:00,
2013-04-07 17:21:00,66.6,43.4,30.02,WSW,241,1.0,3.0,43,0.00,,SKC,0.00,VWS V14.01,2013-04-07 21:21:00,
2013-04-07 17:26:00,66.4,42.6,30.02,ESE,105,3.0,4.0,42,0.00,,SKC,0.00,VWS V14.01,2013-04-07 21:26:00,
2013-04-07 17:31:00,66.3,43.2,30.02,ENE,63,0.0,0.0,43,0.00,,SKC,0.00,VWS V14.01,2013-04-07 21:31:00,
2013-04-07 17:36:00,66.1,42.4,30.02,SE,134,0.0,4.0,42,0.00,,SKC,0.00,VWS V14.01,2013-04-07 21:36:00,
2013-04-07 17:41:00,66.0,43.5,30.02,SE,133,0.0,1.0,44,0.00,,SKC,0.00,VWS V14.01,2013-04-07 21:41:00,
2013-04-07 17:46:00,66.0,42.9,30.02,SSE,150,4.0,4.0,43,0.00,,SKC,0.00,VWS V14.01,2013-04-07 21:46:00,
2013-04-07 17:51:00,66.0,43.5,30.02,West,266,2.0,4.0,44,0.00,,SKC,0.00,VWS V14.01,2013-04-07 21:51:00,
2013-04-07 17:56:00,66.1,43.0,30.02,West,259,0.0,1.0,43,0.00,,SKC,0.00,VWS V14.01,2013-04-07 21:56:00,
2013-04-07 18:01:00,66.1,43.6,30.03,West,269,0.0,3.0,44,0.00,,SKC,0.00,VWS V14.01,2013-04-07 22:01:00,
2013-04-07 18:06:00,66.0,44.1,30.03,WSW,255,10.0,14.0,45,0.00,,SKC,0.00,VWS V14.01,2013-04-07 22:06:00,
2013-04-07 18:11:00,65.8,43.9,30.03,North,359,0.0,3.0,45,0.00,,SKC,0.00,VWS V14.01,2013-04-07 22:11:00,
2013-04-07 18:16:00,65.6,44.3,30.03,East,81,4.0,4.0,46,0.00,,SKC,0.00,VWS V14.01,2013-04-07 22:16:00,
2013-04-07 18:21:00,65.3,43.4,30.03,ENE,61,2.0,3.0,45,0.00,,SKC,0.00,VWS V14.01,2013-04-07 22:21:00,
2013-04-07 18:26:00,65.2,43.3,30.03,West,271,4.0,6.0,45,0.00,,SKC,0.00,VWS V14.01,2013-04-07 22:26:00,
2013-04-07 18:31:00,65.2,43.3,30.03,NNW,330,0.0,1.0,45,0.00,,SKC,0.00,VWS V14.01,2013-04-07 22:31:00,
2013-04-07 18:37:00,65.2,43.3,30.03,NW,309,0.0,3.0,45,0.00,,SKC,0.00,VWS V14.01,2013-04-07 22:37:00,
2013-04-07 18:42:00,65.2,43.3,30.03,SE,124,0.0,4.0,45,0.00,,SKC,0.00,VWS V14.01,2013-04-07 22:42:00,
2013-04-07 18:47:00,65.0,43.7,30.03,WSW,251,6.0,9.0,46,0.00,,SKC,0.00,VWS V14.01,2013-04-07 22:47:00,
2013-04-07 18:52:00,64.8,43.6,30.03,WSW,258,1.0,3.0,46,0.00,,SKC,0.00,VWS V14.01,2013-04-07 22:52:00,
2013-04-07 18:57:00,64.5,42.7,30.03,West,262,1.0,9.0,45,0.00,,SKC,0.00,VWS V14.01,2013-04-07 22:57:00,
2013-04-07 19:02:00,64.2,43.6,30.03,West,268,4.0,5.0,47,0.00,,SKC,0.00,VWS V14.01,2013-04-07 23:02:00,
2013-04-07 19:07:00,64.0,43.4,30.03,WSW,242,3.0,11.0,47,0.00,,SKC,0.00,VWS V14.01,2013-04-07 23:07:00,
2013-04-07 19:12:00,63.7,43.1,30.03,North,5,0.0,7.0,47,0.00,,SKC,0.00,VWS V14.01,2013-04-07 23:12:00,
2013-04-07 19:17:00,63.5,42.9,30.03,West,280,0.0,2.0,47,0.00,,SKC,0.00,VWS V14.01,2013-04-07 23:17:00,
2013-04-07 19:22:00,63.4,43.4,30.03,West,266,0.0,3.0,48,0.00,,SKC,0.00,VWS V14.01,2013-04-07 23:22:00,
2013-04-07 19:27:00,63.2,43.2,30.03,West,270,3.0,5.0,48,0.00,,SKC,0.00,VWS V14.01,2013-04-07 23:27:00,
2013-04-07 19:32:00,62.9,42.9,30.03,West,274,0.0,6.0,48,0.00,,SKC,0.00,VWS V14.01,2013-04-07 23:32:00,
2013-04-07 19:37:00,62.7,42.8,30.03,West,268,0.0,3.0,48,0.00,,SKC,0.00,VWS V14.01,2013-04-07 23:37:00,
2013-04-07 19:42:00,62.6,43.2,30.03,WSW,245,0.0,3.0,49,0.00,,SKC,0.00,VWS V14.01,2013-04-07 23:42:00,
2013-04-07 19:47:00,62.4,42.5,30.04,WSW,250,0.0,4.0,48,0.00,,SKC,0.00,VWS V14.01,2013-04-07 23:47:00,
2013-04-07 19:52:00,62.3,42.4,30.04,West,261,1.0,3.0,48,0.00,,SKC,0.00,VWS V14.01,2013-04-07 23:52:00,
2013-04-07 19:57:00,62.1,43.3,30.04,West,260,0.0,4.0,50,0.00,,SKC,0.00,VWS V14.01,2013-04-07 23:57:00,
2013-04-07 20:02:00,61.8,43.0,30.05,West,261,4.0,4.0,50,0.00,,SKC,0.00,VWS V14.01,2013-04-08 00:02:00,
2013-04-07 20:07:00,61.5,43.2,30.05,West,262,0.0,4.0,51,0.00,,SKC,0.00,VWS V14.01,2013-04-08 00:07:00,
2013-04-07 20:12:00,61.2,43.0,30.05,West,266,0.0,3.0,51,0.00,,SKC,0.00,VWS V14.01,2013-04-08 00:12:00,
2013-04-07 20:17:00,61.0,42.8,30.05,West,266,1.0,4.0,51,0.00,,SKC,0.00,VWS V14.01,2013-04-08 00:17:00,
2013-04-07 20:22:00,61.0,42.8,30.05,West,266,0.0,0.0,51,0.00,,SKC,0.00,VWS V14.01,2013-04-08 00:22:00,
2013-04-07 20:27:00,61.0,42.8,30.05,West,266,1.0,4.0,51,0.00,,SKC,0.00,VWS V14.01,2013-04-08 00:27:00,
2013-04-07 20:32:00,60.9,42.7,30.05,West,266,0.0,4.0,51,0.00,,SKC,0.00,VWS V14.01,2013-04-08 00:32:00,
2013-04-07 20:37:00,61.0,42.8,30.05,West,276,0.0,5.0,51,0.00,,SKC,0.00,VWS V14.01,2013-04-08 00:37:00,
2013-04-07 20:42:00,60.9,42.7,30.05,West,262,0.0,2.0,51,0.00,,SKC,0.00,VWS V14.01,2013-04-08 00:42:00,
2013-04-07 20:47:00,60.7,42.5,30.05,West,269,0.0,4.0,51,0.00,,SKC,0.00,VWS V14.01,2013-04-08 00:47:00,
2013-04-07 20:52:00,60.5,42.3,30.05,West,266,2.0,4.0,51,0.00,,SKC,0.00,VWS V14.01,2013-04-08 00:52:00,
2013-04-07 20:57:00,60.5,42.3,30.05,West,267,2.0,5.0,51,0.00,,SKC,0.00,VWS V14.01,2013-04-08 00:57:00,
2013-04-07 21:02:00,60.7,42.0,30.06,West,267,0.0,2.0,50,0.00,,SKC,0.00,VWS V14.01,2013-04-08 01:02:00,
2013-04-07 21:07:00,60.5,42.3,30.06,West,267,1.0,3.0,51,0.00,,SKC,0.00,VWS V14.01,2013-04-08 01:07:00,
2013-04-07 21:12:00,60.5,41.8,30.06,West,267,3.0,3.0,50,0.00,,SKC,0.00,VWS V14.01,2013-04-08 01:12:00,
2013-04-07 21:17:00,60.5,41.8,30.04,West,266,0.0,4.0,50,0.00,,SKC,0.00,VWS V14.01,2013-04-08 01:17:00,
2013-04-07 21:22:00,60.4,41.7,30.04,West,266,4.0,4.0,50,0.00,,SKC,0.00,VWS V14.01,2013-04-08 01:22:00,
2013-04-07 21:27:00,60.4,41.7,30.04,West,266,0.0,1.0,50,0.00,,SKC,0.00,VWS V14.01,2013-04-08 01:27:00,
2013-04-07 21:32:00,60.2,41.5,30.05,West,266,0.0,0.0,50,0.00,,SKC,0.00,VWS V14.01,2013-04-08 01:32:00,
2013-04-07 21:38:00,60.2,41.5,30.05,West,266,0.0,2.0,50,0.00,,SKC,0.00,VWS V14.01,2013-04-08 01:38:00,
2013-04-07 21:43:00,60.2,41.5,30.05,West,266,0.0,0.0,50,0.00,,SKC,0.00,VWS V14.01,2013-04-08 01:43:00,
2013-04-07 21:48:00,60.1,41.4,30.06,West,266,0.0,1.0,50,0.00,,SKC,0.00,VWS V14.01,2013-04-08 01:48:00,
2013-04-07 21:53:00,60.1,41.4,30.06,West,266,3.0,3.0,50,0.00,,SKC,0.00,VWS V14.01,2013-04-08 01:53:00,
2013-04-07 21:58:00,60.1,41.4,30.06,West,266,0.0,0.0,50,0.00,,SKC,0.00,VWS V14.01,2013-04-08 01:58:00,
2013-04-07 22:03:00,60.1,41.4,30.05,West,266,0.0,1.0,50,0.00,,SKC,0.00,VWS V14.01,2013-04-08 02:03:00,
2013-04-07 22:08:00,59.9,41.2,30.05,West,266,0.0,0.0,50,0.00,,SKC,0.00,VWS V14.01,2013-04-08 02:08:00,
2013-04-07 22:13:00,59.6,41.5,30.05,West,266,0.0,1.0,51,0.00,,SKC,0.00,VWS V14.01,2013-04-08 02:13:00,
2013-04-07 22:18:00,59.3,41.2,30.05,West,266,0.0,1.0,51,0.00,,SKC,0.00,VWS V14.01,2013-04-08 02:18:00,
2013-04-07 22:22:00,59.5,40.9,30.05,West,266,0.0,0.0,50,0.00,,SKC,0.00,VWS V14.01,2013-04-08 02:22:00,
2013-04-07 22:27:00,59.5,40.9,30.05,West,266,0.0,2.0,50,0.00,,SKC,0.00,VWS V14.01,2013-04-08 02:27:00,
2013-04-07 22:33:00,59.3,41.2,30.05,West,266,0.0,0.0,51,0.00,,SKC,0.00,VWS V14.01,2013-04-08 02:33:00,
2013-04-07 22:38:00,59.2,41.1,30.05,West,266,0.0,0.0,51,0.00,,SKC,0.00,VWS V14.01,2013-04-08 02:38:00,
2013-04-07 22:43:00,58.9,41.3,30.05,West,266,0.0,2.0,52,0.00,,SKC,0.00,VWS V14.01,2013-04-08 02:43:00,
2013-04-07 22:48:00,58.4,41.3,30.05,West,266,0.0,1.0,53,0.00,,SKC,0.00,VWS V14.01,2013-04-08 02:48:00,
2013-04-07 22:53:00,58.1,41.1,30.05,West,266,0.0,0.0,53,0.00,,SKC,0.00,VWS V14.01,2013-04-08 02:53:00,
2013-04-07 22:58:00,58.0,41.0,30.05,West,266,0.0,0.0,53,0.00,,SKC,0.00,VWS V14.01,2013-04-08 02:58:00,
2013-04-07 23:03:00,58.1,41.1,30.05,West,266,0.0,2.0,53,0.00,,SKC,0.00,VWS V14.01,2013-04-08 03:03:00,
2013-04-07 23:08:00,58.0,41.0,30.05,West,266,0.0,1.0,53,0.00,,SKC,0.00,VWS V14.01,2013-04-08 03:08:00,
2013-04-07 23:13:00,57.8,40.8,30.05,West,266,0.0,0.0,53,0.00,,SKC,0.00,VWS V14.01,2013-04-08 03:13:00,
2013-04-07 23:18:00,57.8,40.8,30.03,West,266,0.0,4.0,53,0.00,,SKC,0.00,VWS V14.01,2013-04-08 03:18:00,
2013-04-07 23:23:00,57.6,41.1,30.03,West,266,0.0,3.0,54,0.00,,SKC,0.00,VWS V14.01,2013-04-08 03:23:00,
2013-04-07 23:28:00,57.5,41.0,30.03,West,266,0.0,1.0,54,0.00,,SKC,0.00,VWS V14.01,2013-04-08 03:28:00,
2013-04-07 23:33:00,57.3,41.3,30.03,West,266,0.0,0.0,55,0.00,,SKC,0.00,VWS V14.01,2013-04-08 03:33:00,
2013-04-07 23:38:00,57.2,40.7,30.03,West,266,2.0,3.0,54,0.00,,SKC,0.00,VWS V14.01,2013-04-08 03:38:00,
2013-04-07 23:43:00,57.2,41.2,30.03,West,266,0.0,0.0,55,0.00,,SKC,0.00,VWS V14.01,2013-04-08 03:43:00,
2013-04-07 23:48:00,56.6,41.1,30.03,West,266,0.0,0.0,56,0.00,,SKC,0.00,VWS V14.01,2013-04-08 03:48:00,
2013-04-07 23:53:00,56.5,41.0,30.03,West,266,0.0,0.0,56,0.00,,SKC,0.00,VWS V14.01,2013-04-08 03:53:00,
2013-04-07 23:58:00,56.0,41.0,30.03,West,266,0.0,0.0,57,0.00,,SKC,0.00,VWS V14.01,2013-04-08 03:58:00,